sensor_id;sensor_type;location;lat;lon;timestamp;P1;durP1;ratioP1;P2;durP2;ratioP2
19679;SDS011;9989;48.962;9.182;2024-03-22T00:00:03;16.40;;;10.03;;
19679;SDS011;9989;48.962;9.182;2024-03-22T00:02:29;18.27;;;11.60;;
19679;SDS011;9989;48.962;9.182;2024-03-22T00:04:55;18.40;;;10.73;;
19679;SDS011;9989;48.962;9.182;2024-03-22T00:07:20;16.33;;;9.63;;
19679;SDS011;9989;48.962;9.182;2024-03-22T00:09:46;16.23;;;10.10;;
19679;SDS011;9989;48.962;9.182;2024-03-22T00:12:11;17.53;;;10.93;;
19679;SDS011;9989;48.962;9.182;2024-03-22T00:14:37;14.97;;;9.60;;
19679;SDS011;9989;48.962;9.182;2024-03-22T00:17:02;16.70;;;9.80;;
19679;SDS011;9989;48.962;9.182;2024-03-22T00:19:28;16.47;;;10.07;;
19679;SDS011;9989;48.962;9.182;2024-03-22T00:21:53;16.10;;;10.40;;
19679;SDS011;9989;48.962;9.182;2024-03-22T00:24:19;16.33;;;10.47;;
19679;SDS011;9989;48.962;9.182;2024-03-22T00:26:45;15.63;;;10.40;;
19679;SDS011;9989;48.962;9.182;2024-03-22T00:29:10;16.57;;;10.10;;
19679;SDS011;9989;48.962;9.182;2024-03-22T00:31:36;16.67;;;9.97;;
19679;SDS011;9989;48.962;9.182;2024-03-22T00:34:01;18.10;;;11.57;;
19679;SDS011;9989;48.962;9.182;2024-03-22T00:36:27;15.57;;;9.87;;
19679;SDS011;9989;48.962;9.182;2024-03-22T00:38:52;16.87;;;10.57;;
19679;SDS011;9989;48.962;9.182;2024-03-22T00:41:18;14.07;;;9.40;;
19679;SDS011;9989;48.962;9.182;2024-03-22T00:43:43;16.33;;;10.77;;
19679;SDS011;9989;48.962;9.182;2024-03-22T00:46:09;18.10;;;10.97;;
19679;SDS011;9989;48.962;9.182;2024-03-22T00:48:34;17.70;;;10.60;;
19679;SDS011;9989;48.962;9.182;2024-03-22T00:51:01;16.83;;;9.90;;
19679;SDS011;9989;48.962;9.182;2024-03-22T00:53:26;18.47;;;10.60;;
19679;SDS011;9989;48.962;9.182;2024-03-22T00:55:53;17.93;;;10.10;;
19679;SDS011;9989;48.962;9.182;2024-03-22T00:58:21;17.30;;;11.13;;
19679;SDS011;9989;48.962;9.182;2024-03-22T01:00:46;16.70;;;10.30;;
19679;SDS011;9989;48.962;9.182;2024-03-22T01:03:12;17.10;;;11.03;;
19679;SDS011;9989;48.962;9.182;2024-03-22T01:05:38;19.20;;;11.50;;
19679;SDS011;9989;48.962;9.182;2024-03-22T01:08:04;16.57;;;11.03;;
19679;SDS011;9989;48.962;9.182;2024-03-22T01:10:30;18.37;;;11.13;;
19679;SDS011;9989;48.962;9.182;2024-03-22T01:12:56;17.10;;;11.07;;
19679;SDS011;9989;48.962;9.182;2024-03-22T01:15:21;16.80;;;10.93;;
19679;SDS011;9989;48.962;9.182;2024-03-22T01:17:47;17.30;;;11.30;;
19679;SDS011;9989;48.962;9.182;2024-03-22T01:20:13;15.67;;;10.40;;
19679;SDS011;9989;48.962;9.182;2024-03-22T01:22:38;15.83;;;10.17;;
19679;SDS011;9989;48.962;9.182;2024-03-22T01:25:05;15.60;;;9.67;;
19679;SDS011;9989;48.962;9.182;2024-03-22T01:27:31;17.43;;;10.37;;
19679;SDS011;9989;48.962;9.182;2024-03-22T01:29:56;16.10;;;10.10;;
19679;SDS011;9989;48.962;9.182;2024-03-22T01:32:22;20.47;;;10.10;;
19679;SDS011;9989;48.962;9.182;2024-03-22T01:34:47;16.07;;;10.17;;
19679;SDS011;9989;48.962;9.182;2024-03-22T01:37:13;15.87;;;10.17;;
19679;SDS011;9989;48.962;9.182;2024-03-22T01:39:38;16.03;;;10.03;;
19679;SDS011;9989;48.962;9.182;2024-03-22T01:42:04;14.87;;;9.47;;
19679;SDS011;9989;48.962;9.182;2024-03-22T01:44:31;17.40;;;10.10;;
19679;SDS011;9989;48.962;9.182;2024-03-22T01:46:57;17.63;;;10.47;;
19679;SDS011;9989;48.962;9.182;2024-03-22T01:49:24;17.07;;;10.07;;
19679;SDS011;9989;48.962;9.182;2024-03-22T01:51:51;15.37;;;10.00;;
19679;SDS011;9989;48.962;9.182;2024-03-22T01:54:17;13.20;;;8.73;;
19679;SDS011;9989;48.962;9.182;2024-03-22T01:56:44;15.37;;;9.30;;
19679;SDS011;9989;48.962;9.182;2024-03-22T01:59:09;16.73;;;8.93;;
19679;SDS011;9989;48.962;9.182;2024-03-22T02:01:35;13.07;;;8.70;;
19679;SDS011;9989;48.962;9.182;2024-03-22T02:04:01;16.27;;;10.33;;
19679;SDS011;9989;48.962;9.182;2024-03-22T02:06:26;13.90;;;8.60;;
19679;SDS011;9989;48.962;9.182;2024-03-22T02:08:52;13.97;;;8.53;;
19679;SDS011;9989;48.962;9.182;2024-03-22T02:11:18;12.77;;;8.00;;
19679;SDS011;9989;48.962;9.182;2024-03-22T02:13:44;13.63;;;8.50;;
19679;SDS011;9989;48.962;9.182;2024-03-22T02:16:10;17.63;;;8.27;;
19679;SDS011;9989;48.962;9.182;2024-03-22T02:18:35;14.50;;;8.50;;
19679;SDS011;9989;48.962;9.182;2024-03-22T02:21:01;17.80;;;9.03;;
19679;SDS011;9989;48.962;9.182;2024-03-22T02:23:37;13.97;;;8.77;;
19679;SDS011;9989;48.962;9.182;2024-03-22T02:26:04;14.97;;;8.80;;
19679;SDS011;9989;48.962;9.182;2024-03-22T02:28:30;13.47;;;8.63;;
19679;SDS011;9989;48.962;9.182;2024-03-22T02:30:57;14.37;;;8.77;;
19679;SDS011;9989;48.962;9.182;2024-03-22T02:33:26;13.67;;;8.47;;
19679;SDS011;9989;48.962;9.182;2024-03-22T02:35:51;14.37;;;8.80;;
19679;SDS011;9989;48.962;9.182;2024-03-22T02:38:17;14.67;;;8.67;;
19679;SDS011;9989;48.962;9.182;2024-03-22T02:40:43;16.57;;;9.47;;
19679;SDS011;9989;48.962;9.182;2024-03-22T02:43:09;18.73;;;9.60;;
19679;SDS011;9989;48.962;9.182;2024-03-22T02:45:35;18.30;;;10.33;;
19679;SDS011;9989;48.962;9.182;2024-03-22T02:48:01;14.93;;;9.93;;
19679;SDS011;9989;48.962;9.182;2024-03-22T02:50:26;17.80;;;10.80;;
19679;SDS011;9989;48.962;9.182;2024-03-22T02:52:52;17.90;;;10.67;;
19679;SDS011;9989;48.962;9.182;2024-03-22T02:55:18;18.87;;;10.47;;
19679;SDS011;9989;48.962;9.182;2024-03-22T02:57:43;17.83;;;9.93;;
19679;SDS011;9989;48.962;9.182;2024-03-22T03:00:09;17.83;;;9.40;;
19679;SDS011;9989;48.962;9.182;2024-03-22T03:02:35;15.20;;;9.40;;
19679;SDS011;9989;48.962;9.182;2024-03-22T03:05:00;15.93;;;9.47;;
19679;SDS011;9989;48.962;9.182;2024-03-22T03:07:26;15.93;;;10.13;;
19679;SDS011;9989;48.962;9.182;2024-03-22T03:09:55;15.67;;;9.30;;
19679;SDS011;9989;48.962;9.182;2024-03-22T03:12:20;15.07;;;8.87;;
19679;SDS011;9989;48.962;9.182;2024-03-22T03:14:46;15.20;;;9.07;;
19679;SDS011;9989;48.962;9.182;2024-03-22T03:17:11;15.47;;;9.23;;
19679;SDS011;9989;48.962;9.182;2024-03-22T03:19:37;15.63;;;10.10;;
19679;SDS011;9989;48.962;9.182;2024-03-22T03:22:03;15.80;;;8.70;;
19679;SDS011;9989;48.962;9.182;2024-03-22T03:24:28;15.77;;;9.50;;
19679;SDS011;9989;48.962;9.182;2024-03-22T03:26:54;15.03;;;9.10;;
19679;SDS011;9989;48.962;9.182;2024-03-22T03:29:20;14.10;;;8.70;;
19679;SDS011;9989;48.962;9.182;2024-03-22T03:31:45;12.40;;;7.80;;
19679;SDS011;9989;48.962;9.182;2024-03-22T03:34:11;13.57;;;8.23;;
19679;SDS011;9989;48.962;9.182;2024-03-22T03:36:36;13.80;;;7.87;;
19679;SDS011;9989;48.962;9.182;2024-03-22T03:39:02;11.80;;;7.30;;
19679;SDS011;9989;48.962;9.182;2024-03-22T03:41:29;12.47;;;7.67;;
19679;SDS011;9989;48.962;9.182;2024-03-22T03:43:54;13.07;;;7.50;;
19679;SDS011;9989;48.962;9.182;2024-03-22T03:46:20;14.17;;;7.80;;
19679;SDS011;9989;48.962;9.182;2024-03-22T03:48:45;12.23;;;7.87;;
19679;SDS011;9989;48.962;9.182;2024-03-22T03:51:11;13.57;;;7.20;;
19679;SDS011;9989;48.962;9.182;2024-03-22T03:53:37;13.77;;;7.80;;
19679;SDS011;9989;48.962;9.182;2024-03-22T03:56:02;13.23;;;7.40;;
19679;SDS011;9989;48.962;9.182;2024-03-22T03:58:28;12.90;;;7.60;;
19679;SDS011;9989;48.962;9.182;2024-03-22T04:00:53;11.43;;;6.97;;
19679;SDS011;9989;48.962;9.182;2024-03-22T04:03:19;12.50;;;7.23;;
19679;SDS011;9989;48.962;9.182;2024-03-22T04:05:44;13.63;;;6.90;;
19679;SDS011;9989;48.962;9.182;2024-03-22T04:08:10;12.10;;;7.20;;
19679;SDS011;9989;48.962;9.182;2024-03-22T04:10:36;15.37;;;7.40;;
19679;SDS011;9989;48.962;9.182;2024-03-22T04:13:01;11.67;;;6.77;;
19679;SDS011;9989;48.962;9.182;2024-03-22T04:15:27;12.07;;;6.87;;
19679;SDS011;9989;48.962;9.182;2024-03-22T04:17:54;13.07;;;6.87;;
19679;SDS011;9989;48.962;9.182;2024-03-22T04:20:21;12.90;;;7.13;;
19679;SDS011;9989;48.962;9.182;2024-03-22T04:22:46;11.37;;;6.90;;
19679;SDS011;9989;48.962;9.182;2024-03-22T04:25:14;11.40;;;6.77;;
19679;SDS011;9989;48.962;9.182;2024-03-22T04:27:40;11.50;;;6.90;;
19679;SDS011;9989;48.962;9.182;2024-03-22T04:30:05;12.20;;;6.87;;
19679;SDS011;9989;48.962;9.182;2024-03-22T04:32:33;13.97;;;7.03;;
19679;SDS011;9989;48.962;9.182;2024-03-22T04:34:59;12.23;;;7.00;;
19679;SDS011;9989;48.962;9.182;2024-03-22T04:37:24;11.87;;;7.13;;
19679;SDS011;9989;48.962;9.182;2024-03-22T04:39:50;13.40;;;7.93;;
19679;SDS011;9989;48.962;9.182;2024-03-22T04:42:15;11.30;;;6.73;;
19679;SDS011;9989;48.962;9.182;2024-03-22T04:44:41;14.77;;;8.30;;
19679;SDS011;9989;48.962;9.182;2024-03-22T04:47:07;14.63;;;7.93;;
19679;SDS011;9989;48.962;9.182;2024-03-22T04:49:32;12.43;;;7.73;;
19679;SDS011;9989;48.962;9.182;2024-03-22T04:51:58;14.60;;;8.10;;
19679;SDS011;9989;48.962;9.182;2024-03-22T04:54:23;14.77;;;8.20;;
19679;SDS011;9989;48.962;9.182;2024-03-22T04:56:49;12.93;;;7.87;;
19679;SDS011;9989;48.962;9.182;2024-03-22T04:59:15;16.03;;;8.80;;
19679;SDS011;9989;48.962;9.182;2024-03-22T05:01:40;12.93;;;7.70;;
19679;SDS011;9989;48.962;9.182;2024-03-22T05:04:06;12.80;;;7.47;;
19679;SDS011;9989;48.962;9.182;2024-03-22T05:06:32;13.63;;;8.10;;
19679;SDS011;9989;48.962;9.182;2024-03-22T05:08:57;17.67;;;11.00;;
19679;SDS011;9989;48.962;9.182;2024-03-22T05:11:23;17.37;;;11.17;;
19679;SDS011;9989;48.962;9.182;2024-03-22T05:13:49;15.33;;;10.57;;
19679;SDS011;9989;48.962;9.182;2024-03-22T05:16:14;16.90;;;12.53;;
19679;SDS011;9989;48.962;9.182;2024-03-22T05:18:40;14.80;;;10.40;;
19679;SDS011;9989;48.962;9.182;2024-03-22T05:21:05;14.00;;;9.30;;
19679;SDS011;9989;48.962;9.182;2024-03-22T05:23:31;12.40;;;8.27;;
19679;SDS011;9989;48.962;9.182;2024-03-22T05:25:57;15.90;;;8.50;;
19679;SDS011;9989;48.962;9.182;2024-03-22T05:28:24;13.50;;;7.73;;
19679;SDS011;9989;48.962;9.182;2024-03-22T05:30:50;12.57;;;8.50;;
19679;SDS011;9989;48.962;9.182;2024-03-22T05:33:16;15.57;;;10.00;;
19679;SDS011;9989;48.962;9.182;2024-03-22T05:35:41;13.23;;;8.23;;
19679;SDS011;9989;48.962;9.182;2024-03-22T05:38:07;13.50;;;8.37;;
19679;SDS011;9989;48.962;9.182;2024-03-22T05:40:32;12.10;;;7.43;;
19679;SDS011;9989;48.962;9.182;2024-03-22T05:43:00;13.77;;;7.33;;
19679;SDS011;9989;48.962;9.182;2024-03-22T05:45:26;12.20;;;6.87;;
19679;SDS011;9989;48.962;9.182;2024-03-22T05:47:51;14.70;;;7.33;;
19679;SDS011;9989;48.962;9.182;2024-03-22T05:50:17;12.80;;;7.27;;
19679;SDS011;9989;48.962;9.182;2024-03-22T05:52:42;12.63;;;7.13;;
19679;SDS011;9989;48.962;9.182;2024-03-22T05:55:08;14.97;;;7.83;;
19679;SDS011;9989;48.962;9.182;2024-03-22T05:57:34;15.57;;;7.93;;
19679;SDS011;9989;48.962;9.182;2024-03-22T05:59:59;14.83;;;8.70;;
19679;SDS011;9989;48.962;9.182;2024-03-22T06:02:25;15.13;;;8.67;;
19679;SDS011;9989;48.962;9.182;2024-03-22T06:04:50;19.53;;;8.80;;
19679;SDS011;9989;48.962;9.182;2024-03-22T06:07:16;13.77;;;8.10;;
19679;SDS011;9989;48.962;9.182;2024-03-22T06:09:42;14.23;;;8.60;;
19679;SDS011;9989;48.962;9.182;2024-03-22T06:12:14;13.17;;;7.70;;
19679;SDS011;9989;48.962;9.182;2024-03-22T06:14:41;13.27;;;7.67;;
19679;SDS011;9989;48.962;9.182;2024-03-22T06:17:07;12.43;;;7.20;;
19679;SDS011;9989;48.962;9.182;2024-03-22T06:19:34;14.87;;;8.43;;
19679;SDS011;9989;48.962;9.182;2024-03-22T06:22:00;14.00;;;8.33;;
19679;SDS011;9989;48.962;9.182;2024-03-22T06:24:26;12.67;;;8.10;;
19679;SDS011;9989;48.962;9.182;2024-03-22T06:26:51;14.73;;;8.90;;
19679;SDS011;9989;48.962;9.182;2024-03-22T06:29:17;13.93;;;9.00;;
19679;SDS011;9989;48.962;9.182;2024-03-22T06:31:43;18.20;;;11.03;;
19679;SDS011;9989;48.962;9.182;2024-03-22T06:34:08;15.77;;;9.10;;
19679;SDS011;9989;48.962;9.182;2024-03-22T06:36:34;14.50;;;9.23;;
19679;SDS011;9989;48.962;9.182;2024-03-22T06:38:59;15.60;;;9.30;;
19679;SDS011;9989;48.962;9.182;2024-03-22T06:41:25;15.30;;;9.83;;
19679;SDS011;9989;48.962;9.182;2024-03-22T06:43:51;19.50;;;10.20;;
19679;SDS011;9989;48.962;9.182;2024-03-22T06:46:17;19.63;;;9.07;;
19679;SDS011;9989;48.962;9.182;2024-03-22T06:48:42;15.40;;;8.90;;
19679;SDS011;9989;48.962;9.182;2024-03-22T06:51:08;13.87;;;9.00;;
19679;SDS011;9989;48.962;9.182;2024-03-22T06:53:34;16.47;;;10.97;;
19679;SDS011;9989;48.962;9.182;2024-03-22T06:55:59;20.57;;;10.93;;
19679;SDS011;9989;48.962;9.182;2024-03-22T06:58:25;19.77;;;10.47;;
19679;SDS011;9989;48.962;9.182;2024-03-22T07:00:50;16.40;;;10.50;;
19679;SDS011;9989;48.962;9.182;2024-03-22T07:03:16;20.13;;;12.73;;
19679;SDS011;9989;48.962;9.182;2024-03-22T07:05:42;20.07;;;12.97;;
19679;SDS011;9989;48.962;9.182;2024-03-22T07:08:08;22.70;;;11.97;;
19679;SDS011;9989;48.962;9.182;2024-03-22T07:10:34;18.30;;;11.13;;
19679;SDS011;9989;48.962;9.182;2024-03-22T07:13:04;23.13;;;13.60;;
19679;SDS011;9989;48.962;9.182;2024-03-22T07:15:30;19.17;;;11.37;;
19679;SDS011;9989;48.962;9.182;2024-03-22T07:17:57;14.60;;;9.60;;
19679;SDS011;9989;48.962;9.182;2024-03-22T07:20:23;16.43;;;9.53;;
19679;SDS011;9989;48.962;9.182;2024-03-22T07:22:49;16.37;;;10.50;;
19679;SDS011;9989;48.962;9.182;2024-03-22T07:25:15;17.73;;;11.03;;
19679;SDS011;9989;48.962;9.182;2024-03-22T07:27:40;16.10;;;9.70;;
19679;SDS011;9989;48.962;9.182;2024-03-22T07:30:06;22.53;;;11.70;;
19679;SDS011;9989;48.962;9.182;2024-03-22T07:32:32;24.40;;;16.17;;
19679;SDS011;9989;48.962;9.182;2024-03-22T07:34:58;20.77;;;13.33;;
19679;SDS011;9989;48.962;9.182;2024-03-22T07:37:23;21.67;;;12.73;;
19679;SDS011;9989;48.962;9.182;2024-03-22T07:39:49;18.63;;;11.97;;
19679;SDS011;9989;48.962;9.182;2024-03-22T07:42:15;18.07;;;11.07;;
19679;SDS011;9989;48.962;9.182;2024-03-22T07:44:41;16.97;;;10.43;;
19679;SDS011;9989;48.962;9.182;2024-03-22T07:47:07;18.53;;;11.17;;
19679;SDS011;9989;48.962;9.182;2024-03-22T07:49:32;18.97;;;11.60;;
19679;SDS011;9989;48.962;9.182;2024-03-22T07:51:59;23.40;;;13.33;;
19679;SDS011;9989;48.962;9.182;2024-03-22T07:54:25;18.83;;;12.30;;
19679;SDS011;9989;48.962;9.182;2024-03-22T07:56:51;16.83;;;11.63;;
19679;SDS011;9989;48.962;9.182;2024-03-22T07:59:16;23.17;;;13.27;;
19679;SDS011;9989;48.962;9.182;2024-03-22T08:01:42;16.40;;;10.53;;
19679;SDS011;9989;48.962;9.182;2024-03-22T08:04:07;17.63;;;11.30;;
19679;SDS011;9989;48.962;9.182;2024-03-22T08:06:33;21.30;;;13.00;;
19679;SDS011;9989;48.962;9.182;2024-03-22T08:08:58;17.87;;;11.80;;
19679;SDS011;9989;48.962;9.182;2024-03-22T08:11:24;22.97;;;12.63;;
19679;SDS011;9989;48.962;9.182;2024-03-22T08:13:52;19.10;;;10.67;;
19679;SDS011;9989;48.962;9.182;2024-03-22T08:16:17;22.63;;;12.73;;
19679;SDS011;9989;48.962;9.182;2024-03-22T08:18:44;18.63;;;11.53;;
19679;SDS011;9989;48.962;9.182;2024-03-22T08:21:10;18.93;;;13.00;;
19679;SDS011;9989;48.962;9.182;2024-03-22T08:23:35;21.30;;;12.87;;
19679;SDS011;9989;48.962;9.182;2024-03-22T08:26:01;19.80;;;12.27;;
19679;SDS011;9989;48.962;9.182;2024-03-22T08:28:27;21.23;;;12.43;;
19679;SDS011;9989;48.962;9.182;2024-03-22T08:30:52;19.97;;;12.13;;
19679;SDS011;9989;48.962;9.182;2024-03-22T08:33:18;17.20;;;10.57;;
19679;SDS011;9989;48.962;9.182;2024-03-22T08:35:44;17.20;;;11.53;;
19679;SDS011;9989;48.962;9.182;2024-03-22T08:38:09;18.00;;;11.60;;
19679;SDS011;9989;48.962;9.182;2024-03-22T08:40:38;17.77;;;10.77;;
19679;SDS011;9989;48.962;9.182;2024-03-22T08:43:05;17.70;;;10.63;;
19679;SDS011;9989;48.962;9.182;2024-03-22T08:45:32;16.50;;;10.73;;
19679;SDS011;9989;48.962;9.182;2024-03-22T08:47:58;17.53;;;10.00;;
19679;SDS011;9989;48.962;9.182;2024-03-22T08:50:23;18.03;;;11.23;;
19679;SDS011;9989;48.962;9.182;2024-03-22T08:52:50;16.70;;;8.97;;
19679;SDS011;9989;48.962;9.182;2024-03-22T08:55:16;13.30;;;8.93;;
19679;SDS011;9989;48.962;9.182;2024-03-22T08:57:42;15.97;;;9.47;;
19679;SDS011;9989;48.962;9.182;2024-03-22T09:00:08;20.93;;;11.23;;
19679;SDS011;9989;48.962;9.182;2024-03-22T09:02:36;15.77;;;10.13;;
19679;SDS011;9989;48.962;9.182;2024-03-22T09:05:03;22.27;;;11.40;;
19679;SDS011;9989;48.962;9.182;2024-03-22T09:07:29;17.80;;;11.47;;
19679;SDS011;9989;48.962;9.182;2024-03-22T09:09:55;18.33;;;10.57;;
19679;SDS011;9989;48.962;9.182;2024-03-22T09:12:20;18.40;;;10.07;;
19679;SDS011;9989;48.962;9.182;2024-03-22T09:14:46;16.40;;;10.10;;
19679;SDS011;9989;48.962;9.182;2024-03-22T09:17:12;17.37;;;10.87;;
19679;SDS011;9989;48.962;9.182;2024-03-22T09:19:37;13.00;;;8.90;;
19679;SDS011;9989;48.962;9.182;2024-03-22T09:22:03;17.80;;;10.00;;
19679;SDS011;9989;48.962;9.182;2024-03-22T09:24:28;18.47;;;11.30;;
19679;SDS011;9989;48.962;9.182;2024-03-22T09:26:54;17.43;;;10.60;;
19679;SDS011;9989;48.962;9.182;2024-03-22T09:29:20;15.20;;;9.30;;
19679;SDS011;9989;48.962;9.182;2024-03-22T09:31:45;19.00;;;9.13;;
19679;SDS011;9989;48.962;9.182;2024-03-22T09:34:14;15.70;;;9.50;;
19679;SDS011;9989;48.962;9.182;2024-03-22T09:36:41;15.10;;;9.27;;
19679;SDS011;9989;48.962;9.182;2024-03-22T09:39:07;12.20;;;8.00;;
19679;SDS011;9989;48.962;9.182;2024-03-22T09:41:33;13.90;;;8.00;;
19679;SDS011;9989;48.962;9.182;2024-03-22T09:44:06;15.63;;;10.97;;
19679;SDS011;9989;48.962;9.182;2024-03-22T09:46:33;15.00;;;8.87;;
19679;SDS011;9989;48.962;9.182;2024-03-22T09:48:59;16.33;;;10.10;;
19679;SDS011;9989;48.962;9.182;2024-03-22T09:51:26;15.27;;;9.70;;
19679;SDS011;9989;48.962;9.182;2024-03-22T09:53:53;15.47;;;9.67;;
19679;SDS011;9989;48.962;9.182;2024-03-22T09:56:20;19.30;;;10.10;;
19679;SDS011;9989;48.962;9.182;2024-03-22T09:58:47;15.27;;;10.10;;
19679;SDS011;9989;48.962;9.182;2024-03-22T10:01:13;14.10;;;8.77;;
19679;SDS011;9989;48.962;9.182;2024-03-22T10:03:39;16.20;;;9.40;;
19679;SDS011;9989;48.962;9.182;2024-03-22T10:06:04;16.17;;;9.10;;
19679;SDS011;9989;48.962;9.182;2024-03-22T10:08:30;15.87;;;9.63;;
19679;SDS011;9989;48.962;9.182;2024-03-22T10:10:56;14.83;;;10.43;;
19679;SDS011;9989;48.962;9.182;2024-03-22T10:13:22;14.93;;;9.33;;
19679;SDS011;9989;48.962;9.182;2024-03-22T10:15:47;13.03;;;7.83;;
19679;SDS011;9989;48.962;9.182;2024-03-22T10:18:14;12.20;;;7.90;;
19679;SDS011;9989;48.962;9.182;2024-03-22T10:20:40;19.47;;;8.70;;
19679;SDS011;9989;48.962;9.182;2024-03-22T10:23:07;14.07;;;9.17;;
19679;SDS011;9989;48.962;9.182;2024-03-22T10:25:33;15.03;;;8.43;;
19679;SDS011;9989;48.962;9.182;2024-03-22T10:27:59;13.20;;;8.27;;
19679;SDS011;9989;48.962;9.182;2024-03-22T10:30:25;13.27;;;7.60;;
19679;SDS011;9989;48.962;9.182;2024-03-22T10:32:51;15.50;;;7.97;;
19679;SDS011;9989;48.962;9.182;2024-03-22T10:35:17;14.57;;;8.13;;
19679;SDS011;9989;48.962;9.182;2024-03-22T10:37:43;11.83;;;6.87;;
19679;SDS011;9989;48.962;9.182;2024-03-22T10:40:09;10.77;;;6.00;;
19679;SDS011;9989;48.962;9.182;2024-03-22T10:42:36;13.97;;;7.00;;
19679;SDS011;9989;48.962;9.182;2024-03-22T10:45:03;10.27;;;5.40;;
19679;SDS011;9989;48.962;9.182;2024-03-22T10:47:30;10.17;;;5.90;;
19679;SDS011;9989;48.962;9.182;2024-03-22T10:50:07;11.23;;;5.83;;
19679;SDS011;9989;48.962;9.182;2024-03-22T10:55:27;11.70;;;5.80;;
19679;SDS011;9989;48.962;9.182;2024-03-22T10:57:57;10.43;;;5.03;;
19679;SDS011;9989;48.962;9.182;2024-03-22T11:00:30;8.60;;;4.20;;
19679;SDS011;9989;48.962;9.182;2024-03-22T11:03:01;11.77;;;5.53;;
19679;SDS011;9989;48.962;9.182;2024-03-22T11:05:28;10.40;;;5.10;;
19679;SDS011;9989;48.962;9.182;2024-03-22T11:08:00;11.67;;;5.80;;
19679;SDS011;9989;48.962;9.182;2024-03-22T11:10:30;10.67;;;4.23;;
19679;SDS011;9989;48.962;9.182;2024-03-22T11:13:02;10.87;;;5.23;;
19679;SDS011;9989;48.962;9.182;2024-03-22T11:15:29;10.43;;;5.20;;
19679;SDS011;9989;48.962;9.182;2024-03-22T11:17:55;9.23;;;5.17;;
19679;SDS011;9989;48.962;9.182;2024-03-22T11:20:21;10.70;;;5.53;;
19679;SDS011;9989;48.962;9.182;2024-03-22T11:22:47;9.83;;;4.87;;
19679;SDS011;9989;48.962;9.182;2024-03-22T11:25:13;7.97;;;4.37;;
19679;SDS011;9989;48.962;9.182;2024-03-22T11:27:38;8.53;;;3.77;;
19679;SDS011;9989;48.962;9.182;2024-03-22T11:30:04;12.00;;;5.63;;
19679;SDS011;9989;48.962;9.182;2024-03-22T11:32:30;10.03;;;4.37;;
19679;SDS011;9989;48.962;9.182;2024-03-22T11:34:56;8.57;;;4.23;;
19679;SDS011;9989;48.962;9.182;2024-03-22T11:37:22;10.70;;;4.73;;
19679;SDS011;9989;48.962;9.182;2024-03-22T11:39:48;9.43;;;5.10;;
19679;SDS011;9989;48.962;9.182;2024-03-22T11:42:14;8.70;;;4.17;;
19679;SDS011;9989;48.962;9.182;2024-03-22T11:44:42;9.97;;;5.20;;
19679;SDS011;9989;48.962;9.182;2024-03-22T11:47:08;11.40;;;4.70;;
19679;SDS011;9989;48.962;9.182;2024-03-22T11:49:34;10.47;;;3.67;;
19679;SDS011;9989;48.962;9.182;2024-03-22T11:52:00;9.13;;;3.80;;
19679;SDS011;9989;48.962;9.182;2024-03-22T11:54:26;8.13;;;3.77;;
19679;SDS011;9989;48.962;9.182;2024-03-22T11:56:51;9.43;;;3.60;;
19679;SDS011;9989;48.962;9.182;2024-03-22T11:59:20;8.87;;;4.37;;
19679;SDS011;9989;48.962;9.182;2024-03-22T12:01:46;9.13;;;3.80;;
19679;SDS011;9989;48.962;9.182;2024-03-22T12:04:12;10.33;;;4.60;;
19679;SDS011;9989;48.962;9.182;2024-03-22T12:06:44;8.87;;;3.43;;
19679;SDS011;9989;48.962;9.182;2024-03-22T12:09:10;7.07;;;3.97;;
19679;SDS011;9989;48.962;9.182;2024-03-22T12:11:39;8.63;;;3.60;;
19679;SDS011;9989;48.962;9.182;2024-03-22T12:14:05;6.33;;;3.23;;
19679;SDS011;9989;48.962;9.182;2024-03-22T12:16:31;7.87;;;3.60;;
19679;SDS011;9989;48.962;9.182;2024-03-22T12:18:57;7.53;;;3.87;;
19679;SDS011;9989;48.962;9.182;2024-03-22T12:21:23;10.57;;;4.60;;
19679;SDS011;9989;48.962;9.182;2024-03-22T12:23:49;8.03;;;3.47;;
19679;SDS011;9989;48.962;9.182;2024-03-22T12:26:14;7.33;;;3.80;;
19679;SDS011;9989;48.962;9.182;2024-03-22T12:28:40;7.00;;;3.60;;
19679;SDS011;9989;48.962;9.182;2024-03-22T12:31:07;8.47;;;4.53;;
19679;SDS011;9989;48.962;9.182;2024-03-22T12:33:33;8.87;;;3.60;;
19679;SDS011;9989;48.962;9.182;2024-03-22T12:35:58;6.57;;;3.20;;
19679;SDS011;9989;48.962;9.182;2024-03-22T12:38:25;8.83;;;4.67;;
19679;SDS011;9989;48.962;9.182;2024-03-22T12:40:50;8.10;;;4.27;;
19679;SDS011;9989;48.962;9.182;2024-03-22T12:43:16;9.67;;;3.47;;
19679;SDS011;9989;48.962;9.182;2024-03-22T12:45:42;13.53;;;4.13;;
19679;SDS011;9989;48.962;9.182;2024-03-22T12:48:07;11.40;;;4.40;;
19679;SDS011;9989;48.962;9.182;2024-03-22T12:50:33;8.53;;;4.00;;
19679;SDS011;9989;48.962;9.182;2024-03-22T12:53:00;7.40;;;3.70;;
19679;SDS011;9989;48.962;9.182;2024-03-22T12:55:26;6.80;;;3.43;;
19679;SDS011;9989;48.962;9.182;2024-03-22T12:57:53;8.50;;;3.93;;
19679;SDS011;9989;48.962;9.182;2024-03-22T13:00:19;7.70;;;4.13;;
19679;SDS011;9989;48.962;9.182;2024-03-22T13:02:45;10.23;;;4.13;;
19679;SDS011;9989;48.962;9.182;2024-03-22T13:05:11;8.47;;;3.90;;
19679;SDS011;9989;48.962;9.182;2024-03-22T13:07:37;7.83;;;3.60;;
19679;SDS011;9989;48.962;9.182;2024-03-22T13:10:03;7.80;;;3.80;;
19679;SDS011;9989;48.962;9.182;2024-03-22T13:12:29;10.37;;;4.00;;
19679;SDS011;9989;48.962;9.182;2024-03-22T13:14:59;9.10;;;4.13;;
19679;SDS011;9989;48.962;9.182;2024-03-22T13:17:25;9.67;;;3.90;;
19679;SDS011;9989;48.962;9.182;2024-03-22T13:19:50;7.93;;;3.87;;
19679;SDS011;9989;48.962;9.182;2024-03-22T13:22:16;9.77;;;4.37;;
19679;SDS011;9989;48.962;9.182;2024-03-22T13:24:44;13.47;;;4.07;;
19679;SDS011;9989;48.962;9.182;2024-03-22T13:27:10;8.77;;;4.37;;
19679;SDS011;9989;48.962;9.182;2024-03-22T13:29:37;10.47;;;4.13;;
19679;SDS011;9989;48.962;9.182;2024-03-22T13:32:03;10.70;;;4.27;;
19679;SDS011;9989;48.962;9.182;2024-03-22T13:34:29;11.50;;;4.67;;
19679;SDS011;9989;48.962;9.182;2024-03-22T13:36:55;7.27;;;3.20;;
19679;SDS011;9989;48.962;9.182;2024-03-22T13:39:20;10.57;;;3.83;;
19679;SDS011;9989;48.962;9.182;2024-03-22T13:41:48;9.50;;;3.50;;
19679;SDS011;9989;48.962;9.182;2024-03-22T13:44:14;9.63;;;3.93;;
19679;SDS011;9989;48.962;9.182;2024-03-22T13:46:39;6.83;;;3.33;;
19679;SDS011;9989;48.962;9.182;2024-03-22T13:49:13;6.87;;;2.97;;
19679;SDS011;9989;48.962;9.182;2024-03-22T13:51:49;6.20;;;2.80;;
19679;SDS011;9989;48.962;9.182;2024-03-22T13:54:15;7.47;;;3.00;;
19679;SDS011;9989;48.962;9.182;2024-03-22T13:56:41;6.53;;;2.97;;
19679;SDS011;9989;48.962;9.182;2024-03-22T13:59:06;5.97;;;2.83;;
19679;SDS011;9989;48.962;9.182;2024-03-22T14:01:35;8.33;;;3.13;;
19679;SDS011;9989;48.962;9.182;2024-03-22T14:04:01;4.67;;;2.07;;
19679;SDS011;9989;48.962;9.182;2024-03-22T14:06:30;3.93;;;1.80;;
19679;SDS011;9989;48.962;9.182;2024-03-22T14:08:57;4.90;;;2.07;;
19679;SDS011;9989;48.962;9.182;2024-03-22T14:11:29;5.67;;;2.47;;
19679;SDS011;9989;48.962;9.182;2024-03-22T14:13:58;6.37;;;3.00;;
19679;SDS011;9989;48.962;9.182;2024-03-22T14:16:24;5.50;;;2.50;;
19679;SDS011;9989;48.962;9.182;2024-03-22T14:18:50;6.30;;;2.47;;
19679;SDS011;9989;48.962;9.182;2024-03-22T14:21:17;6.27;;;2.40;;
19679;SDS011;9989;48.962;9.182;2024-03-22T14:23:46;5.00;;;2.10;;
19679;SDS011;9989;48.962;9.182;2024-03-22T14:26:12;9.43;;;2.10;;
19679;SDS011;9989;48.962;9.182;2024-03-22T14:28:37;5.00;;;2.00;;
19679;SDS011;9989;48.962;9.182;2024-03-22T14:31:05;6.67;;;2.20;;
19679;SDS011;9989;48.962;9.182;2024-03-22T14:33:34;4.00;;;1.90;;
19679;SDS011;9989;48.962;9.182;2024-03-22T14:36:01;4.87;;;2.10;;
19679;SDS011;9989;48.962;9.182;2024-03-22T14:38:28;7.33;;;2.20;;
19679;SDS011;9989;48.962;9.182;2024-03-22T14:40:54;5.80;;;2.30;;